Fletchers Landing Township, Maine
Current Conditions -  °F | °C
As of 12:15 PM on Wednesday 26 Nov 2014 (Local Time) from KBHB Reporting Station
Overcast Overcast  
Wind Chill: 36°   Ceiling: 5000
Heat Index: 39°   Visibility: 10mi
Dew Point: 28°   Wind: 5mph
Humidity: 65%   Direction: 20°NNE
Pressure: 30.19"   Gusts: NA
Location:  44.6651°N, 68.3944°W
Report Text: KBHB 261715Z AUTO 02004KT 10SM OVC050 04/M02 A3019 RMK AO1
Loading
Personal Weather Stations






























Interactive Weather Map New forecast layout! Learn more

10-Day Weather Forecast

Advertisements
Track Severe Weather on mobile